Terminal Aerodrome Forecast
Issued by NWS Missoula, MT

Home | Current Version | Previous Version | Text Only | Print | Product List | Glossary On
Versions: 1 2 3 4 5 6 7 8 9 10 11 12 13 14 15 16
000
FTUS45 KMSO 192337
TAFBTM
TAF
KBTM 192337Z 2000/2024 00000KT P6SM -SHSN SCT035 BKN050 OVC070
     FM200100 30005KT 3SM -SN BR BKN025 OVC050
     FM200300 VRB03KT P6SM OVC050=

USA.gov is the U.S. government's official web portal to all federal, state and local government web resources and services.